sensor_id;sensor_type;location;lat;lon;timestamp;temperature;humidity
3023;DHT22;1521;53.584;9.938;2023-09-19T00:01:33;17.10;99.90
3023;DHT22;1521;53.584;9.938;2023-09-19T00:03:59;17.20;99.90
3023;DHT22;1521;53.584;9.938;2023-09-19T00:06:27;17.10;67.90
3023;DHT22;1521;53.584;9.938;2023-09-19T00:08:53;17.10;91.80
3023;DHT22;1521;53.584;9.938;2023-09-19T00:11:20;17.10;99.90
3023;DHT22;1521;53.584;9.938;2023-09-19T00:13:47;17.10;99.90
3023;DHT22;1521;53.584;9.938;2023-09-19T00:16:15;17.10;99.90
3023;DHT22;1521;53.584;9.938;2023-09-19T00:18:40;17.10;99.90
3023;DHT22;1521;53.584;9.938;2023-09-19T00:21:06;17.10;99.90
3023;DHT22;1521;53.584;9.938;2023-09-19T00:23:32;17.00;99.90
3023;DHT22;1521;53.584;9.938;2023-09-19T00:25:59;17.00;1.00
3023;DHT22;1521;53.584;9.938;2023-09-19T00:28:24;17.00;1.00
3023;DHT22;1521;53.584;9.938;2023-09-19T00:30:50;17.00;1.00
3023;DHT22;1521;53.584;9.938;2023-09-19T00:33:16;17.00;99.90
3023;DHT22;1521;53.584;9.938;2023-09-19T00:35:52;17.10;99.90
3023;DHT22;1521;53.584;9.938;2023-09-19T00:38:19;17.00;99.90
3023;DHT22;1521;53.584;9.938;2023-09-19T00:40:48;17.00;99.90
3023;DHT22;1521;53.584;9.938;2023-09-19T00:43:14;17.00;99.90
3023;DHT22;1521;53.584;9.938;2023-09-19T00:45:43;17.00;99.90
3023;DHT22;1521;53.584;9.938;2023-09-19T00:48:09;17.00;99.90
3023;DHT22;1521;53.584;9.938;2023-09-19T00:50:36;17.00;99.90
3023;DHT22;1521;53.584;9.938;2023-09-19T00:53:02;17.00;99.90
3023;DHT22;1521;53.584;9.938;2023-09-19T00:55:35;17.00;99.90
3023;DHT22;1521;53.584;9.938;2023-09-19T00:58:03;17.00;99.90
3023;DHT22;1521;53.584;9.938;2023-09-19T01:00:28;17.00;99.90
3023;DHT22;1521;53.584;9.938;2023-09-19T01:02:54;17.00;99.90
3023;DHT22;1521;53.584;9.938;2023-09-19T01:05:21;17.00;99.90
3023;DHT22;1521;53.584;9.938;2023-09-19T01:07:47;16.90;99.90
3023;DHT22;1521;53.584;9.938;2023-09-19T01:10:17;16.90;99.90
3023;DHT22;1521;53.584;9.938;2023-09-19T01:18:27;16.90;1.00
3023;DHT22;1521;53.584;9.938;2023-09-19T01:21:34;17.00;1.00
3023;DHT22;1521;53.584;9.938;2023-09-19T01:29:44;16.90;1.00
3023;DHT22;1521;53.584;9.938;2023-09-19T01:32:15;16.90;99.90
3023;DHT22;1521;53.584;9.938;2023-09-19T01:37:15;16.90;99.90
3023;DHT22;1521;53.584;9.938;2023-09-19T01:39:48;16.90;99.90
3023;DHT22;1521;53.584;9.938;2023-09-19T01:42:27;16.90;1.00
3023;DHT22;1521;53.584;9.938;2023-09-19T01:45:03;16.90;1.00
3023;DHT22;1521;53.584;9.938;2023-09-19T01:47:50;16.90;99.90
3023;DHT22;1521;53.584;9.938;2023-09-19T01:50:32;16.90;99.90
3023;DHT22;1521;53.584;9.938;2023-09-19T01:53:10;16.90;99.90
3023;DHT22;1521;53.584;9.938;2023-09-19T01:55:44;16.80;99.90
3023;DHT22;1521;53.584;9.938;2023-09-19T02:00:46;16.70;99.90
3023;DHT22;1521;53.584;9.938;2023-09-19T02:03:13;16.70;99.90
3023;DHT22;1521;53.584;9.938;2023-09-19T02:05:40;16.70;99.90
3023;DHT22;1521;53.584;9.938;2023-09-19T02:08:05;16.60;99.90
3023;DHT22;1521;53.584;9.938;2023-09-19T02:10:31;16.60;99.90
3023;DHT22;1521;53.584;9.938;2023-09-19T02:12:57;16.60;99.90
3023;DHT22;1521;53.584;9.938;2023-09-19T02:15:22;16.50;99.90
3023;DHT22;1521;53.584;9.938;2023-09-19T02:17:48;16.50;99.90
3023;DHT22;1521;53.584;9.938;2023-09-19T02:20:13;16.50;99.90
3023;DHT22;1521;53.584;9.938;2023-09-19T02:22:41;16.40;1.00
3023;DHT22;1521;53.584;9.938;2023-09-19T02:25:07;16.40;1.00
3023;DHT22;1521;53.584;9.938;2023-09-19T02:27:34;16.30;1.00
3023;DHT22;1521;53.584;9.938;2023-09-19T02:29:59;16.30;1.00
3023;DHT22;1521;53.584;9.938;2023-09-19T02:32:29;16.30;99.90
3023;DHT22;1521;53.584;9.938;2023-09-19T02:34:57;16.30;99.90
3023;DHT22;1521;53.584;9.938;2023-09-19T02:37:23;16.20;1.00
3023;DHT22;1521;53.584;9.938;2023-09-19T02:39:49;16.20;1.00
3023;DHT22;1521;53.584;9.938;2023-09-19T02:42:14;16.20;99.90
3023;DHT22;1521;53.584;9.938;2023-09-19T02:44:40;16.20;99.90
3023;DHT22;1521;53.584;9.938;2023-09-19T02:47:05;16.20;1.00
3023;DHT22;1521;53.584;9.938;2023-09-19T02:49:31;16.10;1.00
3023;DHT22;1521;53.584;9.938;2023-09-19T02:51:57;16.20;1.00
3023;DHT22;1521;53.584;9.938;2023-09-19T02:54:24;16.20;1.00
3023;DHT22;1521;53.584;9.938;2023-09-19T02:56:50;16.20;1.00
3023;DHT22;1521;53.584;9.938;2023-09-19T02:59:16;16.20;99.90
3023;DHT22;1521;53.584;9.938;2023-09-19T03:01:45;16.20;9.70
3023;DHT22;1521;53.584;9.938;2023-09-19T03:04:13;16.30;1.00
3023;DHT22;1521;53.584;9.938;2023-09-19T03:06:41;16.30;1.00
3023;DHT22;1521;53.584;9.938;2023-09-19T03:09:07;16.30;1.00
3023;DHT22;1521;53.584;9.938;2023-09-19T03:11:36;16.30;99.90
3023;DHT22;1521;53.584;9.938;2023-09-19T03:14:02;16.30;16.80
3023;DHT22;1521;53.584;9.938;2023-09-19T03:16:29;16.30;1.00
3023;DHT22;1521;53.584;9.938;2023-09-19T03:18:55;16.30;1.00
3023;DHT22;1521;53.584;9.938;2023-09-19T03:21:20;16.30;1.00
3023;DHT22;1521;53.584;9.938;2023-09-19T03:23:47;16.30;1.00
3023;DHT22;1521;53.584;9.938;2023-09-19T03:26:13;16.30;1.00
3023;DHT22;1521;53.584;9.938;2023-09-19T03:28:39;16.30;1.00
3023;DHT22;1521;53.584;9.938;2023-09-19T03:31:06;16.30;99.90
3023;DHT22;1521;53.584;9.938;2023-09-19T03:33:32;16.30;1.00
3023;DHT22;1521;53.584;9.938;2023-09-19T03:36:00;16.30;1.00
3023;DHT22;1521;53.584;9.938;2023-09-19T03:38:29;16.30;1.00
3023;DHT22;1521;53.584;9.938;2023-09-19T03:40:55;16.30;1.00
3023;DHT22;1521;53.584;9.938;2023-09-19T03:43:20;16.30;1.00
3023;DHT22;1521;53.584;9.938;2023-09-19T03:45:46;16.20;1.00
3023;DHT22;1521;53.584;9.938;2023-09-19T03:48:12;16.20;1.00
3023;DHT22;1521;53.584;9.938;2023-09-19T03:50:38;16.20;1.00
3023;DHT22;1521;53.584;9.938;2023-09-19T03:53:04;16.10;1.00
3023;DHT22;1521;53.584;9.938;2023-09-19T03:55:32;16.10;1.00
3023;DHT22;1521;53.584;9.938;2023-09-19T03:57:58;16.10;1.00
3023;DHT22;1521;53.584;9.938;2023-09-19T04:00:23;16.00;1.00
3023;DHT22;1521;53.584;9.938;2023-09-19T04:02:52;15.90;1.00
3023;DHT22;1521;53.584;9.938;2023-09-19T04:05:19;15.80;1.00
3023;DHT22;1521;53.584;9.938;2023-09-19T04:07:44;15.80;99.90
3023;DHT22;1521;53.584;9.938;2023-09-19T04:10:10;15.80;99.90
3023;DHT22;1521;53.584;9.938;2023-09-19T04:12:40;15.70;99.90
3023;DHT22;1521;53.584;9.938;2023-09-19T04:15:06;15.60;99.90
3023;DHT22;1521;53.584;9.938;2023-09-19T04:17:32;15.60;99.90
3023;DHT22;1521;53.584;9.938;2023-09-19T04:19:59;15.60;99.90
3023;DHT22;1521;53.584;9.938;2023-09-19T04:22:24;15.50;99.90
3023;DHT22;1521;53.584;9.938;2023-09-19T04:24:50;15.50;99.90
3023;DHT22;1521;53.584;9.938;2023-09-19T04:27:15;15.40;99.40
3023;DHT22;1521;53.584;9.938;2023-09-19T04:29:41;15.40;84.40
3023;DHT22;1521;53.584;9.938;2023-09-19T04:32:09;15.30;66.80
3023;DHT22;1521;53.584;9.938;2023-09-19T04:34:35;15.30;89.00
3023;DHT22;1521;53.584;9.938;2023-09-19T04:37:01;15.20;88.70
3023;DHT22;1521;53.584;9.938;2023-09-19T04:39:27;15.20;92.00
3023;DHT22;1521;53.584;9.938;2023-09-19T04:41:53;15.10;87.30
3023;DHT22;1521;53.584;9.938;2023-09-19T04:44:20;15.10;96.30
3023;DHT22;1521;53.584;9.938;2023-09-19T04:46:46;15.10;76.50
3023;DHT22;1521;53.584;9.938;2023-09-19T04:49:12;15.00;85.90
3023;DHT22;1521;53.584;9.938;2023-09-19T04:51:38;15.00;97.20
3023;DHT22;1521;53.584;9.938;2023-09-19T04:54:05;14.90;95.00
3023;DHT22;1521;53.584;9.938;2023-09-19T04:56:31;14.90;99.90
3023;DHT22;1521;53.584;9.938;2023-09-19T04:59:00;14.90;99.90
3023;DHT22;1521;53.584;9.938;2023-09-19T05:01:26;14.90;99.90
3023;DHT22;1521;53.584;9.938;2023-09-19T05:03:52;14.90;99.90
3023;DHT22;1521;53.584;9.938;2023-09-19T05:06:21;14.80;99.90
3023;DHT22;1521;53.584;9.938;2023-09-19T05:08:48;14.80;99.90
3023;DHT22;1521;53.584;9.938;2023-09-19T05:11:18;14.70;99.90
3023;DHT22;1521;53.584;9.938;2023-09-19T05:13:46;14.70;99.90
3023;DHT22;1521;53.584;9.938;2023-09-19T05:16:11;14.70;99.90
3023;DHT22;1521;53.584;9.938;2023-09-19T05:18:37;14.70;99.90
3023;DHT22;1521;53.584;9.938;2023-09-19T05:21:03;14.70;99.90
3023;DHT22;1521;53.584;9.938;2023-09-19T05:23:28;14.70;99.90
3023;DHT22;1521;53.584;9.938;2023-09-19T05:25:54;14.70;99.90
3023;DHT22;1521;53.584;9.938;2023-09-19T05:28:22;14.70;99.90
3023;DHT22;1521;53.584;9.938;2023-09-19T05:30:47;14.60;99.90
3023;DHT22;1521;53.584;9.938;2023-09-19T05:33:14;14.60;99.90
3023;DHT22;1521;53.584;9.938;2023-09-19T05:35:40;14.60;99.90
3023;DHT22;1521;53.584;9.938;2023-09-19T05:38:07;14.60;99.90
3023;DHT22;1521;53.584;9.938;2023-09-19T05:40:34;14.60;99.90
3023;DHT22;1521;53.584;9.938;2023-09-19T05:43:01;14.60;99.90
3023;DHT22;1521;53.584;9.938;2023-09-19T05:45:27;14.60;99.90
3023;DHT22;1521;53.584;9.938;2023-09-19T05:47:53;14.60;99.90
3023;DHT22;1521;53.584;9.938;2023-09-19T05:50:29;14.60;99.90
3023;DHT22;1521;53.584;9.938;2023-09-19T05:52:55;14.60;99.90
3023;DHT22;1521;53.584;9.938;2023-09-19T05:55:23;14.60;99.90
3023;DHT22;1521;53.584;9.938;2023-09-19T05:57:54;14.60;99.90
3023;DHT22;1521;53.584;9.938;2023-09-19T06:00:23;14.70;99.90
3023;DHT22;1521;53.584;9.938;2023-09-19T06:02:53;14.70;99.90
3023;DHT22;1521;53.584;9.938;2023-09-19T06:05:19;14.80;99.90
3023;DHT22;1521;53.584;9.938;2023-09-19T06:07:45;15.00;99.90
3023;DHT22;1521;53.584;9.938;2023-09-19T06:10:10;15.00;99.90
3023;DHT22;1521;53.584;9.938;2023-09-19T06:12:40;15.10;99.90
3023;DHT22;1521;53.584;9.938;2023-09-19T06:15:06;15.20;99.90
3023;DHT22;1521;53.584;9.938;2023-09-19T06:17:38;15.40;99.90
3023;DHT22;1521;53.584;9.938;2023-09-19T06:20:07;15.50;74.10
3023;DHT22;1521;53.584;9.938;2023-09-19T06:22:44;15.60;27.00
3023;DHT22;1521;53.584;9.938;2023-09-19T06:25:10;15.70;13.00
3023;DHT22;1521;53.584;9.938;2023-09-19T06:27:39;15.70;1.00
3023;DHT22;1521;53.584;9.938;2023-09-19T06:30:09;15.70;1.00
3023;DHT22;1521;53.584;9.938;2023-09-19T06:32:35;15.70;1.00
3023;DHT22;1521;53.584;9.938;2023-09-19T06:35:01;15.80;1.00
3023;DHT22;1521;53.584;9.938;2023-09-19T06:37:28;15.80;1.00
3023;DHT22;1521;53.584;9.938;2023-09-19T06:39:53;15.80;1.00
3023;DHT22;1521;53.584;9.938;2023-09-19T06:42:19;15.80;1.00
3023;DHT22;1521;53.584;9.938;2023-09-19T06:44:45;15.80;1.00
3023;DHT22;1521;53.584;9.938;2023-09-19T06:47:10;15.90;1.00
3023;DHT22;1521;53.584;9.938;2023-09-19T06:49:36;15.90;1.00
3023;DHT22;1521;53.584;9.938;2023-09-19T06:52:02;15.90;1.00
3023;DHT22;1521;53.584;9.938;2023-09-19T06:54:28;16.00;1.00
3023;DHT22;1521;53.584;9.938;2023-09-19T06:56:59;16.10;1.00
3023;DHT22;1521;53.584;9.938;2023-09-19T06:59:25;16.10;1.00
3023;DHT22;1521;53.584;9.938;2023-09-19T07:01:50;16.10;1.00
3023;DHT22;1521;53.584;9.938;2023-09-19T07:04:16;16.10;1.00
3023;DHT22;1521;53.584;9.938;2023-09-19T07:06:48;16.20;1.00
3023;DHT22;1521;53.584;9.938;2023-09-19T07:09:15;16.30;1.00
3023;DHT22;1521;53.584;9.938;2023-09-19T07:11:41;16.40;1.00
3023;DHT22;1521;53.584;9.938;2023-09-19T07:14:06;16.40;1.00
3023;DHT22;1521;53.584;9.938;2023-09-19T07:16:32;16.40;1.00
3023;DHT22;1521;53.584;9.938;2023-09-19T07:18:57;16.40;1.00
3023;DHT22;1521;53.584;9.938;2023-09-19T07:21:23;16.40;1.00
3023;DHT22;1521;53.584;9.938;2023-09-19T07:23:49;16.40;1.00
3023;DHT22;1521;53.584;9.938;2023-09-19T07:26:16;16.40;1.00
3023;DHT22;1521;53.584;9.938;2023-09-19T07:28:42;16.50;1.00
3023;DHT22;1521;53.584;9.938;2023-09-19T07:31:07;16.50;1.00
3023;DHT22;1521;53.584;9.938;2023-09-19T07:33:35;16.50;1.00
3023;DHT22;1521;53.584;9.938;2023-09-19T07:36:01;16.50;1.00
3023;DHT22;1521;53.584;9.938;2023-09-19T07:38:27;16.50;1.00
3023;DHT22;1521;53.584;9.938;2023-09-19T07:40:53;16.50;1.00
3023;DHT22;1521;53.584;9.938;2023-09-19T07:43:18;16.50;1.00
3023;DHT22;1521;53.584;9.938;2023-09-19T07:45:44;16.30;1.00
3023;DHT22;1521;53.584;9.938;2023-09-19T07:48:10;16.20;1.00
3023;DHT22;1521;53.584;9.938;2023-09-19T07:50:40;16.20;1.00
3023;DHT22;1521;53.584;9.938;2023-09-19T07:53:08;16.00;1.00
3023;DHT22;1521;53.584;9.938;2023-09-19T07:55:34;15.80;43.00
3023;DHT22;1521;53.584;9.938;2023-09-19T07:57:59;15.50;99.90
3023;DHT22;1521;53.584;9.938;2023-09-19T08:00:26;15.20;99.90
3023;DHT22;1521;53.584;9.938;2023-09-19T08:02:51;15.10;1.00
3023;DHT22;1521;53.584;9.938;2023-09-19T08:05:19;15.00;99.00
3023;DHT22;1521;53.584;9.938;2023-09-19T08:07:46;14.90;1.00
3023;DHT22;1521;53.584;9.938;2023-09-19T08:10:14;14.80;99.90
3023;DHT22;1521;53.584;9.938;2023-09-19T08:12:44;14.70;1.00
3023;DHT22;1521;53.584;9.938;2023-09-19T08:15:19;14.70;1.00
3023;DHT22;1521;53.584;9.938;2023-09-19T08:17:45;14.80;99.90
3023;DHT22;1521;53.584;9.938;2023-09-19T08:20:11;14.90;1.00
3023;DHT22;1521;53.584;9.938;2023-09-19T08:22:50;15.00;99.90
3023;DHT22;1521;53.584;9.938;2023-09-19T08:25:23;15.10;1.00
3023;DHT22;1521;53.584;9.938;2023-09-19T08:27:49;15.30;99.90
3023;DHT22;1521;53.584;9.938;2023-09-19T08:30:17;15.40;1.00
3023;DHT22;1521;53.584;9.938;2023-09-19T08:32:43;15.40;1.00
3023;DHT22;1521;53.584;9.938;2023-09-19T08:35:10;15.60;1.00
3023;DHT22;1521;53.584;9.938;2023-09-19T08:37:36;15.70;1.00
3023;DHT22;1521;53.584;9.938;2023-09-19T08:40:01;15.80;99.90
3023;DHT22;1521;53.584;9.938;2023-09-19T08:42:27;15.90;99.90
3023;DHT22;1521;53.584;9.938;2023-09-19T08:44:53;15.90;99.90
3023;DHT22;1521;53.584;9.938;2023-09-19T08:47:33;15.90;99.90
3023;DHT22;1521;53.584;9.938;2023-09-19T08:50:07;15.90;99.90
3023;DHT22;1521;53.584;9.938;2023-09-19T08:52:43;15.90;99.90
3023;DHT22;1521;53.584;9.938;2023-09-19T08:55:13;16.00;99.90
3023;DHT22;1521;53.584;9.938;2023-09-19T08:57:46;16.10;98.80
3023;DHT22;1521;53.584;9.938;2023-09-19T09:00:15;16.20;99.90
3023;DHT22;1521;53.584;9.938;2023-09-19T09:02:43;16.30;81.90
3023;DHT22;1521;53.584;9.938;2023-09-19T09:05:10;16.40;57.40
3023;DHT22;1521;53.584;9.938;2023-09-19T09:07:40;16.40;56.00
3023;DHT22;1521;53.584;9.938;2023-09-19T09:10:06;16.50;18.50
3023;DHT22;1521;53.584;9.938;2023-09-19T09:12:33;16.50;13.50
3023;DHT22;1521;53.584;9.938;2023-09-19T09:15:02;16.60;1.00
3023;DHT22;1521;53.584;9.938;2023-09-19T09:17:29;16.60;1.00
3023;DHT22;1521;53.584;9.938;2023-09-19T09:19:55;16.70;1.00
3023;DHT22;1521;53.584;9.938;2023-09-19T09:22:21;16.70;1.00
3023;DHT22;1521;53.584;9.938;2023-09-19T09:24:59;16.80;1.00
3023;DHT22;1521;53.584;9.938;2023-09-19T09:27:29;16.90;1.00
3023;DHT22;1521;53.584;9.938;2023-09-19T09:29:55;17.00;1.00
3023;DHT22;1521;53.584;9.938;2023-09-19T09:32:24;17.10;1.00
3023;DHT22;1521;53.584;9.938;2023-09-19T09:34:52;17.20;1.00
3023;DHT22;1521;53.584;9.938;2023-09-19T09:37:19;17.40;1.00
3023;DHT22;1521;53.584;9.938;2023-09-19T09:39:56;17.50;1.00
3023;DHT22;1521;53.584;9.938;2023-09-19T09:42:33;17.80;1.00
3023;DHT22;1521;53.584;9.938;2023-09-19T09:47:47;18.00;1.00
3023;DHT22;1521;53.584;9.938;2023-09-19T09:50:28;18.20;1.00
3023;DHT22;1521;53.584;9.938;2023-09-19T09:52:56;18.30;1.00
3023;DHT22;1521;53.584;9.938;2023-09-19T09:55:58;18.40;1.00
3023;DHT22;1521;53.584;9.938;2023-09-19T09:58:25;18.50;1.00
3023;DHT22;1521;53.584;9.938;2023-09-19T10:00:58;18.60;1.00
3023;DHT22;1521;53.584;9.938;2023-09-19T10:03:36;18.70;1.00
3023;DHT22;1521;53.584;9.938;2023-09-19T10:06:09;18.80;1.00
3023;DHT22;1521;53.584;9.938;2023-09-19T10:09:00;18.80;1.00
3023;DHT22;1521;53.584;9.938;2023-09-19T10:11:49;18.90;1.00
3023;DHT22;1521;53.584;9.938;2023-09-19T10:14:30;19.00;1.00
3023;DHT22;1521;53.584;9.938;2023-09-19T10:16:58;19.20;1.00
3023;DHT22;1521;53.584;9.938;2023-09-19T10:19:32;19.30;1.00
3023;DHT22;1521;53.584;9.938;2023-09-19T10:22:02;19.40;1.00
3023;DHT22;1521;53.584;9.938;2023-09-19T10:24:28;19.40;1.00
3023;DHT22;1521;53.584;9.938;2023-09-19T10:26:57;19.40;1.00
3023;DHT22;1521;53.584;9.938;2023-09-19T10:29:24;19.30;1.00
3023;DHT22;1521;53.584;9.938;2023-09-19T10:31:52;19.20;1.00
3023;DHT22;1521;53.584;9.938;2023-09-19T10:34:19;19.00;1.00
3023;DHT22;1521;53.584;9.938;2023-09-19T10:36:46;18.90;1.00
3023;DHT22;1521;53.584;9.938;2023-09-19T10:39:16;18.90;1.00
3023;DHT22;1521;53.584;9.938;2023-09-19T10:41:50;19.00;1.00
3023;DHT22;1521;53.584;9.938;2023-09-19T10:44:25;19.20;1.00
3023;DHT22;1521;53.584;9.938;2023-09-19T10:46:52;19.40;1.00
3023;DHT22;1521;53.584;9.938;2023-09-19T10:49:21;19.30;1.00
3023;DHT22;1521;53.584;9.938;2023-09-19T10:51:49;19.40;1.00
3023;DHT22;1521;53.584;9.938;2023-09-19T10:54:20;19.70;1.00
3023;DHT22;1521;53.584;9.938;2023-09-19T10:56:52;20.00;1.00
3023;DHT22;1521;53.584;9.938;2023-09-19T10:59:20;20.40;1.00
3023;DHT22;1521;53.584;9.938;2023-09-19T11:01:53;20.40;1.00
3023;DHT22;1521;53.584;9.938;2023-09-19T11:04:35;20.10;1.00
3023;DHT22;1521;53.584;9.938;2023-09-19T11:07:06;19.90;1.00
3023;DHT22;1521;53.584;9.938;2023-09-19T11:09:53;19.80;1.00
3023;DHT22;1521;53.584;9.938;2023-09-19T11:14:55;19.60;1.00
3023;DHT22;1521;53.584;9.938;2023-09-19T11:30:38;19.00;1.00
3023;DHT22;1521;53.584;9.938;2023-09-19T11:36:11;19.10;1.00
3023;DHT22;1521;53.584;9.938;2023-09-19T11:46:24;19.30;1.00
3023;DHT22;1521;53.584;9.938;2023-09-19T11:48:51;19.30;1.00
3023;DHT22;1521;53.584;9.938;2023-09-19T11:51:21;19.60;1.00
3023;DHT22;1521;53.584;9.938;2023-09-19T11:53:54;19.70;1.00
3023;DHT22;1521;53.584;9.938;2023-09-19T11:56:23;20.50;1.00
3023;DHT22;1521;53.584;9.938;2023-09-19T11:58:51;20.80;1.00
3023;DHT22;1521;53.584;9.938;2023-09-19T12:01:24;21.00;1.00
3023;DHT22;1521;53.584;9.938;2023-09-19T12:03:55;21.20;1.00
3023;DHT22;1521;53.584;9.938;2023-09-19T12:06:25;21.00;1.00
3023;DHT22;1521;53.584;9.938;2023-09-19T12:08:52;20.70;1.00
3023;DHT22;1521;53.584;9.938;2023-09-19T12:11:21;20.40;1.00
3023;DHT22;1521;53.584;9.938;2023-09-19T12:13:48;20.40;1.00
3023;DHT22;1521;53.584;9.938;2023-09-19T12:16:20;20.40;1.00
3023;DHT22;1521;53.584;9.938;2023-09-19T12:18:50;20.70;1.00
3023;DHT22;1521;53.584;9.938;2023-09-19T12:21:26;20.80;1.00
3023;DHT22;1521;53.584;9.938;2023-09-19T12:24:04;21.10;1.00
3023;DHT22;1521;53.584;9.938;2023-09-19T12:26:38;20.80;1.00
3023;DHT22;1521;53.584;9.938;2023-09-19T12:29:04;20.50;1.00
3023;DHT22;1521;53.584;9.938;2023-09-19T12:31:31;21.00;1.00
3023;DHT22;1521;53.584;9.938;2023-09-19T12:34:01;21.40;1.00
3023;DHT22;1521;53.584;9.938;2023-09-19T12:36:27;21.70;1.00
3023;DHT22;1521;53.584;9.938;2023-09-19T12:38:56;21.60;1.00
3023;DHT22;1521;53.584;9.938;2023-09-19T12:41:26;21.10;1.00
3023;DHT22;1521;53.584;9.938;2023-09-19T12:43:54;21.20;1.00
3023;DHT22;1521;53.584;9.938;2023-09-19T12:46:23;21.80;1.00
3023;DHT22;1521;53.584;9.938;2023-09-19T12:49:19;22.10;1.00
3023;DHT22;1521;53.584;9.938;2023-09-19T12:51:48;21.80;1.00
3023;DHT22;1521;53.584;9.938;2023-09-19T12:54:15;22.00;1.00
3023;DHT22;1521;53.584;9.938;2023-09-19T12:56:43;21.90;1.00
3023;DHT22;1521;53.584;9.938;2023-09-19T12:59:14;21.90;1.00
3023;DHT22;1521;53.584;9.938;2023-09-19T13:01:40;21.80;1.00
3023;DHT22;1521;53.584;9.938;2023-09-19T13:04:16;21.70;1.00
3023;DHT22;1521;53.584;9.938;2023-09-19T13:06:49;21.40;1.00
3023;DHT22;1521;53.584;9.938;2023-09-19T13:09:19;21.50;1.00
3023;DHT22;1521;53.584;9.938;2023-09-19T13:11:46;21.80;1.00
3023;DHT22;1521;53.584;9.938;2023-09-19T13:14:20;21.50;1.00
3023;DHT22;1521;53.584;9.938;2023-09-19T13:17:04;21.30;1.00
3023;DHT22;1521;53.584;9.938;2023-09-19T13:19:49;21.90;1.00
3023;DHT22;1521;53.584;9.938;2023-09-19T13:25:04;21.60;1.00
3023;DHT22;1521;53.584;9.938;2023-09-19T13:27:32;21.50;1.00
3023;DHT22;1521;53.584;9.938;2023-09-19T13:29:58;21.80;1.00
3023;DHT22;1521;53.584;9.938;2023-09-19T13:32:26;22.20;1.00
3023;DHT22;1521;53.584;9.938;2023-09-19T13:34:51;22.50;1.00
3023;DHT22;1521;53.584;9.938;2023-09-19T13:37:17;22.70;1.00
3023;DHT22;1521;53.584;9.938;2023-09-19T13:39:43;22.20;1.00
3023;DHT22;1521;53.584;9.938;2023-09-19T13:42:13;22.00;1.00
3023;DHT22;1521;53.584;9.938;2023-09-19T13:44:38;21.90;1.00
3023;DHT22;1521;53.584;9.938;2023-09-19T13:47:06;22.20;1.00
3023;DHT22;1521;53.584;9.938;2023-09-19T13:49:35;22.50;1.00
3023;DHT22;1521;53.584;9.938;2023-09-19T13:52:01;22.50;1.00
3023;DHT22;1521;53.584;9.938;2023-09-19T13:54:30;22.60;1.00
3023;DHT22;1521;53.584;9.938;2023-09-19T13:56:56;22.70;1.00
3023;DHT22;1521;53.584;9.938;2023-09-19T13:59:22;22.70;1.00
3023;DHT22;1521;53.584;9.938;2023-09-19T14:01:49;22.20;1.00
3023;DHT22;1521;53.584;9.938;2023-09-19T14:04:16;22.00;1.00
3023;DHT22;1521;53.584;9.938;2023-09-19T14:06:42;21.90;1.00
3023;DHT22;1521;53.584;9.938;2023-09-19T14:09:08;21.50;1.00
3023;DHT22;1521;53.584;9.938;2023-09-19T14:11:36;21.10;1.00
3023;DHT22;1521;53.584;9.938;2023-09-19T14:14:02;21.00;1.00
3023;DHT22;1521;53.584;9.938;2023-09-19T14:16:27;21.10;1.00
3023;DHT22;1521;53.584;9.938;2023-09-19T14:18:59;20.90;1.00
3023;DHT22;1521;53.584;9.938;2023-09-19T14:21:25;21.10;1.00
3023;DHT22;1521;53.584;9.938;2023-09-19T14:23:51;21.10;1.00
3023;DHT22;1521;53.584;9.938;2023-09-19T14:26:17;21.00;1.00
3023;DHT22;1521;53.584;9.938;2023-09-19T14:28:43;20.50;1.00
3023;DHT22;1521;53.584;9.938;2023-09-19T14:31:10;20.40;1.00
3023;DHT22;1521;53.584;9.938;2023-09-19T14:33:37;20.30;1.00
3023;DHT22;1521;53.584;9.938;2023-09-19T14:36:07;20.30;1.00
3023;DHT22;1521;53.584;9.938;2023-09-19T14:38:35;20.40;1.00
3023;DHT22;1521;53.584;9.938;2023-09-19T14:41:05;20.40;1.00
3023;DHT22;1521;53.584;9.938;2023-09-19T14:43:31;20.30;1.00
3023;DHT22;1521;53.584;9.938;2023-09-19T14:46:02;20.20;1.00
3023;DHT22;1521;53.584;9.938;2023-09-19T14:48:28;20.10;1.00
3023;DHT22;1521;53.584;9.938;2023-09-19T14:50:53;19.80;1.00
3023;DHT22;1521;53.584;9.938;2023-09-19T14:53:21;19.70;1.00
3023;DHT22;1521;53.584;9.938;2023-09-19T14:55:46;19.70;1.00
3023;DHT22;1521;53.584;9.938;2023-09-19T14:58:13;19.70;1.00
3023;DHT22;1521;53.584;9.938;2023-09-19T15:00:39;19.60;1.00
3023;DHT22;1521;53.584;9.938;2023-09-19T15:03:05;19.60;1.00
3023;DHT22;1521;53.584;9.938;2023-09-19T15:05:31;19.60;1.00
3023;DHT22;1521;53.584;9.938;2023-09-19T15:07:56;19.60;1.00
3023;DHT22;1521;53.584;9.938;2023-09-19T15:10:24;19.60;1.00
3023;DHT22;1521;53.584;9.938;2023-09-19T15:12:49;19.50;1.00
3023;DHT22;1521;53.584;9.938;2023-09-19T15:15:15;19.40;1.00
3023;DHT22;1521;53.584;9.938;2023-09-19T15:17:41;19.30;1.00
3023;DHT22;1521;53.584;9.938;2023-09-19T15:20:07;19.30;1.00
3023;DHT22;1521;53.584;9.938;2023-09-19T15:22:33;19.30;1.00
3023;DHT22;1521;53.584;9.938;2023-09-19T15:25:00;19.30;1.00
3023;DHT22;1521;53.584;9.938;2023-09-19T15:27:27;19.30;1.00
3023;DHT22;1521;53.584;9.938;2023-09-19T15:29:53;19.30;1.00
3023;DHT22;1521;53.584;9.938;2023-09-19T15:32:19;19.40;1.00
3023;DHT22;1521;53.584;9.938;2023-09-19T15:34:44;19.40;1.00
3023;DHT22;1521;53.584;9.938;2023-09-19T15:37:12;19.40;1.00
3023;DHT22;1521;53.584;9.938;2023-09-19T15:39:38;19.40;1.00
3023;DHT22;1521;53.584;9.938;2023-09-19T15:42:03;19.40;1.00
3023;DHT22;1521;53.584;9.938;2023-09-19T15:44:29;19.40;1.00
3023;DHT22;1521;53.584;9.938;2023-09-19T15:46:54;19.30;1.00
3023;DHT22;1521;53.584;9.938;2023-09-19T15:49:20;19.30;1.00
3023;DHT22;1521;53.584;9.938;2023-09-19T15:51:46;19.30;1.00
3023;DHT22;1521;53.584;9.938;2023-09-19T15:54:15;19.30;1.00
3023;DHT22;1521;53.584;9.938;2023-09-19T15:56:45;19.20;1.00
3023;DHT22;1521;53.584;9.938;2023-09-19T15:59:12;19.20;1.00
3023;DHT22;1521;53.584;9.938;2023-09-19T16:01:39;19.20;1.00
3023;DHT22;1521;53.584;9.938;2023-09-19T16:04:08;19.20;1.00
3023;DHT22;1521;53.584;9.938;2023-09-19T16:06:35;19.10;1.00
3023;DHT22;1521;53.584;9.938;2023-09-19T16:09:02;19.10;1.00
3023;DHT22;1521;53.584;9.938;2023-09-19T16:11:30;19.00;1.00
3023;DHT22;1521;53.584;9.938;2023-09-19T16:13:56;18.90;1.00
3023;DHT22;1521;53.584;9.938;2023-09-19T16:16:23;18.90;1.00
3023;DHT22;1521;53.584;9.938;2023-09-19T16:18:50;18.90;1.00
3023;DHT22;1521;53.584;9.938;2023-09-19T16:21:17;18.90;1.00
3023;DHT22;1521;53.584;9.938;2023-09-19T16:23:47;18.90;1.00
3023;DHT22;1521;53.584;9.938;2023-09-19T16:26:13;18.90;1.00
3023;DHT22;1521;53.584;9.938;2023-09-19T16:28:40;18.90;1.00
3023;DHT22;1521;53.584;9.938;2023-09-19T16:31:07;18.90;1.00
3023;DHT22;1521;53.584;9.938;2023-09-19T16:33:34;18.90;1.00
3023;DHT22;1521;53.584;9.938;2023-09-19T16:36:02;18.90;1.00
3023;DHT22;1521;53.584;9.938;2023-09-19T16:38:28;18.90;1.00
3023;DHT22;1521;53.584;9.938;2023-09-19T16:40:58;18.80;1.00
3023;DHT22;1521;53.584;9.938;2023-09-19T16:43:25;18.80;1.00
3023;DHT22;1521;53.584;9.938;2023-09-19T16:45:59;18.80;1.00
3023;DHT22;1521;53.584;9.938;2023-09-19T16:48:26;18.80;1.00
3023;DHT22;1521;53.584;9.938;2023-09-19T16:50:53;18.70;1.00
3023;DHT22;1521;53.584;9.938;2023-09-19T16:53:19;18.80;1.00
3023;DHT22;1521;53.584;9.938;2023-09-19T16:55:46;18.80;1.00
3023;DHT22;1521;53.584;9.938;2023-09-19T16:58:13;18.80;1.00
3023;DHT22;1521;53.584;9.938;2023-09-19T17:00:39;18.80;1.00
3023;DHT22;1521;53.584;9.938;2023-09-19T17:03:05;18.70;1.00
3023;DHT22;1521;53.584;9.938;2023-09-19T17:05:32;18.70;1.00
3023;DHT22;1521;53.584;9.938;2023-09-19T17:07:58;18.70;1.00